Terminal Aerodrome Forecast
Issued by NWS

Home | Current Version | Previous Version | Text Only | Print | Product List | Glossary On
Versions: 1 2 3 4 5 6 7 8 9 10 11 12 13 14 15 16 17 18 19 20
000
FTUS43 KDTX 260757 AAA
TAFPTK
TAF AMD
KPTK 260757Z 2608/2706 10008KT P6SM BKN008 OVC012
     FM261000 10007KT 5SM BR OVC006
     FM261500 11008KT 5SM BR BKN012
     FM261700 13010KT 5SM -SHRA SCT012 OVC022
     FM270100 16008KT 3SM -SHRA BR OVC012=

USA.gov is the U.S. government's official web portal to all federal, state and local government web resources and services.